Time;durP1;ratioP1;P1;durP2;ratioP2;P2;SDS_P1;SDS_P2;PMS_P1;PMS_P2;Temp;Humidity;BMP_temperature;BMP_pressure;BME280_temperature;BME280_humidity;BME280_pressure;Samples;Min_cycle;Max_cycle;Signal;HPM_P1;HPM_P2
2022/09/03 00:02:44;;;;;;;5.13;2.13;;;;;;;21.30;42.61;98343.34;7037725;28;20284;-81
2022/09/03 00:06:11;;;;;;;2.87;1.90;;;;;;;21.27;44.35;98345.84;7037505;28;20229;-79
2022/09/03 00:09:34;;;;;;;2.20;1.93;;;;;;;;;;7037501;28;20314;-80
2022/09/03 00:13:01;;;;;;;2.30;2.10;;;;;;;20.88;45.52;98352.38;7039183;28;20225;-79
2022/09/03 00:16:24;;;;;;;3.50;1.93;;;;;;;20.94;43.98;98351.28;7038901;28;20246;-79
2022/09/03 00:19:52;;;;;;;1.80;1.70;;;;;;;21.42;42.83;98340.28;7039626;28;20205;-79
2022/09/03 00:23:17;;;;;;;3.27;1.90;;;;;;;21.57;42.02;98335.47;7043782;28;20189;-79
2022/09/03 00:26:40;;;;;;;3.23;1.90;;;;;;;21.61;42.96;98322.00;7053059;28;20224;-80
2022/09/03 00:30:09;;;;;;;3.93;2.13;;;;;;;21.78;43.17;98334.22;7048061;28;20225;-79
2022/09/03 00:33:32;;;;;;;3.97;2.10;;;;;;;21.63;43.34;98334.31;7031696;28;20318;-79
2022/09/03 00:36:54;;;;;;;1.97;1.87;;;;;;;21.87;40.49;98328.91;7030098;28;20228;-79
2022/09/03 00:40:30;;;;;;;2.40;2.10;;;;;;;22.04;40.93;98332.88;7030644;28;20280;-79
2022/09/03 00:44:01;;;;;;;2.03;1.83;;;;;;;22.05;39.92;98330.94;7031253;28;20189;-79
2022/09/03 00:47:30;;;;;;;2.00;1.80;;;;;;;22.20;39.03;98337.09;7030335;28;20262;-79
2022/09/03 00:51:06;;;;;;;3.00;1.70;;;;;;;22.31;38.87;98324.88;7030448;28;20287;-80
2022/09/03 00:54:33;;;;;;;2.03;1.90;;;;;;;22.55;38.29;98331.22;7031100;28;20228;-79
2022/09/03 00:58:07;;;;;;;1.77;1.67;;;;;;;22.56;38.51;98338.38;7030191;28;20286;-79
2022/09/03 01:01:34;;;;;;;1.90;1.70;;;;;;;22.63;38.76;98333.34;7030931;28;20412;-79
2022/09/03 01:05:03;;;;;;;1.90;1.70;;;;;;;22.19;38.29;98316.22;7031142;28;20318;-79
2022/09/03 01:08:38;;;;;;;1.90;1.77;;;;;;;22.14;39.04;98329.22;7030032;28;20205;-80
2022/09/03 01:12:02;;;;;;;2.63;1.60;;;;;;;21.97;39.36;98326.91;7030709;28;20704;-79
2022/09/03 01:15:30;;;;;;;1.90;1.80;;;;;;;22.17;38.51;98325.88;7030157;28;20264;-79
2022/09/03 01:18:59;;;;;;;1.93;1.83;;;;;;;22.56;38.48;98334.81;7029966;28;20323;-79
2022/09/03 01:22:43;;;;;;;1.60;1.53;;;;;;;22.78;38.02;98332.34;7030685;28;20659;-79
2022/09/03 01:26:21;;;;;;;2.10;1.90;;;;;;;22.42;38.63;98323.66;7030007;28;20321;-80
2022/09/03 01:29:50;;;;;;;2.43;1.80;;;;;;;22.14;38.79;98308.03;7029035;28;20219;-79
2022/09/03 01:33:19;;;;;;;1.97;1.80;;;;;;;22.15;39.01;98309.72;7029675;28;20321;-79
2022/09/03 01:36:49;;;;;;;3.10;1.53;;;;;;;22.19;38.87;98332.72;7028402;28;20297;-79
2022/09/03 01:40:18;;;;;;;1.73;1.50;;;;;;;22.48;38.51;98321.72;7025912;28;20239;-80
2022/09/03 01:43:46;;;;;;;1.73;1.60;;;;;;;22.33;38.81;98330.09;7002419;28;20781;-80
2022/09/03 01:47:16;;;;;;;2.03;1.80;;;;;;;22.80;37.88;98336.41;7001919;28;20222;-79
2022/09/03 01:50:44;;;;;;;1.60;1.50;;;;;;;22.62;38.52;98339.13;7001605;28;20330;-79
2022/09/03 01:54:20;;;;;;;2.63;1.53;;;;;;;22.45;38.70;98333.28;7004799;28;20184;-80
2022/09/03 01:57:49;;;;;;;3.93;1.60;;;;;;;22.43;38.79;98319.03;7006868;28;20205;-79
2022/09/03 02:01:17;;;;;;;1.70;1.60;;;;;;;22.93;37.96;98321.13;7006651;28;20586;-80
2022/09/03 02:04:40;;;;;;;2.60;1.67;;;;;;;22.95;40.56;98343.66;7006650;28;20711;-80
2022/09/03 02:08:04;;;;;;;2.67;1.93;;;;;;;22.79;41.69;98339.47;7006167;28;20207;-80
2022/09/03 02:11:26;;;;;;;3.17;2.00;;;;;;;22.59;39.80;98324.03;7006658;28;20721;-80
2022/09/03 02:14:47;;;;;;;1.70;1.60;;;;;;;22.85;38.97;98344.59;7006203;28;20256;-79
2022/09/03 02:18:13;;;;;;;2.33;1.60;;;;;;;22.87;38.07;98328.63;7005700;28;20209;-79
2022/09/03 02:21:39;;;;;;;1.60;1.50;;;;;;;23.12;38.18;98330.22;7006328;28;20276;-80
2022/09/03 02:25:01;;;;;;;3.33;1.90;;;;;;;22.91;39.32;98329.69;7006260;28;20234;-79
2022/09/03 02:28:22;;;;;;;1.90;1.70;;;;;;;23.11;41.21;98353.31;7005368;28;20280;-80
2022/09/03 02:31:44;;;;;;;2.00;1.80;;;;;;;22.44;42.87;98339.91;7006298;28;20232;-80
2022/09/03 02:35:07;;;;;;;1.97;1.87;;;;;;;22.51;43.20;98341.19;7004471;28;20327;-80
2022/09/03 02:38:30;;;;;;;1.90;1.80;;;;;;;22.38;43.78;98361.09;7005619;28;20660;-79
2022/09/03 02:41:55;;;;;;;2.03;1.83;;;;;;;22.33;44.27;98363.88;7005451;28;20252;-80
2022/09/03 02:45:21;;;;;;;2.00;1.90;;;;;;;22.27;44.05;98339.50;7005558;28;20284;-79
2022/09/03 02:48:43;;;;;;;2.30;2.10;;;;;;;22.60;42.81;98335.88;7005390;28;20243;-80
2022/09/03 02:52:08;;;;;;;3.27;1.70;;;;;;;22.28;43.82;98350.19;7005598;28;20315;-79
2022/09/03 02:55:31;;;;;;;2.40;2.00;;;;;;;22.47;43.52;98340.13;7006199;28;20241;-80
2022/09/03 02:58:52;;;;;;;2.17;1.90;;;;;;;22.35;43.73;98349.84;7004915;28;20237;-80
2022/09/03 03:02:14;;;;;;;2.63;2.07;;;;;;;22.29;44.03;98346.34;7005776;28;20207;-80
2022/09/03 03:05:42;;;;;;;1.87;1.70;;;;;;;22.19;44.56;98331.91;7005536;28;20217;-80
2022/09/03 03:09:04;;;;;;;4.37;2.20;;;;;;;21.89;44.96;98330.28;7005639;28;20199;-80
2022/09/03 03:12:28;;;;;;;2.20;1.93;;;;;;;21.70;45.58;98336.75;7005935;28;20312;-79
2022/09/03 03:15:49;;;;;;;2.33;2.00;;;;;;;21.37;46.68;98335.63;7006122;28;20225;-79
2022/09/03 03:19:11;;;;;;;4.40;2.17;;;;;;;21.42;47.58;98365.75;7005153;28;20221;-79
2022/09/03 03:22:32;;;;;;;4.47;2.23;;;;;;;21.26;47.88;98357.94;7006097;28;20284;-79
2022/09/03 03:25:54;;;;;;;2.53;2.33;;;;;;;21.17;48.49;98358.81;7006317;28;20326;-81
2022/09/03 03:29:17;;;;;;;2.73;2.10;;;;;;;21.33;47.71;98365.84;7006424;28;20241;-79
2022/09/03 03:32:39;;;;;;;2.17;2.00;;;;;;;21.02;47.80;98358.88;7006914;28;20225;-79
2022/09/03 03:36:04;;;;;;;3.77;2.37;;;;;;;21.35;47.30;98356.19;7007437;28;20228;-80
2022/09/03 03:39:26;;;;;;;3.43;2.20;;;;;;;21.28;47.43;98345.56;7008462;28;20217;-79
2022/09/03 03:42:48;;;;;;;2.00;1.90;;;;;;;21.44;47.04;98360.00;7036460;28;20248;-79
2022/09/03 03:46:12;;;;;;;2.67;2.13;;;;;;;21.45;47.06;98359.72;7043373;28;20229;-80
2022/09/03 03:49:33;;;;;;;2.13;2.03;;;;;;;21.07;48.03;98343.25;7031307;28;20722;-79
2022/09/03 03:52:55;;;;;;;2.20;2.10;;;;;;;21.22;48.09;98367.00;7031937;28;20718;-80
2022/09/03 03:56:16;;;;;;;2.73;1.90;;;;;;;21.01;48.80;98363.56;7034138;28;20274;-79
2022/09/03 03:59:38;;;;;;;1.97;1.87;;;;;;;20.96;49.18;98370.97;7033953;28;20228;-79
2022/09/03 04:03:00;;;;;;;2.10;2.00;;;;;;;21.07;48.26;98372.56;7033291;28;20244;-79
2022/09/03 04:06:22;;;;;;;4.60;2.27;;;;;;;21.06;48.07;98387.38;7034322;28;20740;-79
2022/09/03 04:09:44;;;;;;;2.20;2.10;;;;;;;21.17;48.10;98379.63;7032472;28;20208;-79
2022/09/03 04:13:05;;;;;;;2.77;2.30;;;;;;;20.80;49.22;98381.16;7032499;28;20214;-79
2022/09/03 04:16:27;;;;;;;4.37;2.00;;;;;;;;;;7032058;28;20229;-79
2022/09/03 04:19:50;;;;;;;2.30;2.10;;;;;;;20.91;49.37;98362.78;7033373;28;20217;-79
2022/09/03 04:23:12;;;;;;;2.83;2.23;;;;;;;20.88;49.40;98371.56;7041273;28;20209;-78
2022/09/03 04:26:33;;;;;;;2.33;2.13;;;;;;;20.42;50.43;98367.34;7052094;28;20235;-78
2022/09/03 04:29:55;;;;;;;3.50;2.30;;;;;;;19.78;52.91;98372.63;7047142;28;20621;-79
2022/09/03 04:33:17;;;;;;;2.30;2.10;;;;;;;20.26;51.23;98363.00;7033450;28;20206;-79
2022/09/03 04:36:41;;;;;;;2.57;2.30;;;;;;;20.55;50.45;98369.47;7032546;28;20238;-79
2022/09/03 04:40:03;;;;;;;4.60;2.10;;;;;;;20.84;49.66;98374.03;7033314;28;20271;-79
2022/09/03 04:43:24;;;;;;;3.87;2.47;;;;;;;20.78;49.69;98372.41;7035325;28;20216;-79
2022/09/03 04:46:47;;;;;;;2.53;1.90;;;;;;;20.93;49.19;98379.78;7039795;28;20232;-78
2022/09/03 04:50:09;;;;;;;3.23;2.33;;;;;;;21.20;48.64;98387.28;7031300;28;20229;-78
2022/09/03 04:53:33;;;;;;;4.73;2.40;;;;;;;20.90;49.10;98378.41;7031300;28;20220;-78
2022/09/03 04:56:54;;;;;;;2.37;2.17;;;;;;;20.49;49.44;98385.13;7030784;28;20320;-78
2022/09/03 05:00:17;;;;;;;2.47;2.27;;;;;;;20.98;47.95;98383.31;7030467;28;20224;-78
2022/09/03 05:03:38;;;;;;;2.77;2.10;;;;;;;21.17;47.93;98370.59;7030616;28;20205;-78
2022/09/03 05:07:00;;;;;;;2.53;2.10;;;;;;;21.13;48.23;98372.28;7030769;28;20251;-78
2022/09/03 05:10:22;;;;;;;3.20;2.30;;;;;;;20.93;49.47;98377.84;7030140;28;20699;-79
2022/09/03 05:13:47;;;;;;;2.47;2.27;;;;;;;21.14;48.35;98385.69;7031123;28;20215;-78
2022/09/03 05:17:09;;;;;;;5.20;2.40;;;;;;;21.33;47.87;98357.63;7030944;28;20225;-79
2022/09/03 05:20:31;;;;;;;3.03;2.20;;;;;;;21.59;46.31;98365.38;7029786;28;20201;-78
2022/09/03 05:23:53;;;;;;;2.30;2.10;;;;;;;21.63;45.41;98363.69;7031402;28;20240;-79
2022/09/03 05:27:16;;;;;;;3.13;2.03;;;;;;;21.79;44.51;98366.06;7032792;28;20224;-78
2022/09/03 05:30:38;;;;;;;2.30;2.10;;;;;;;21.94;45.01;98367.81;7035603;28;20236;-79
2022/09/03 05:34:02;;;;;;;2.20;2.00;;;;;;;21.83;43.78;98367.09;7035537;28;20252;-78
2022/09/03 05:37:23;;;;;;;2.87;2.50;;;;;;;22.08;43.89;98366.06;7015869;28;20258;-79
2022/09/03 05:40:45;;;;;;;2.40;2.20;;;;;;;22.10;43.96;98366.59;7008748;28;20210;-79
2022/09/03 05:44:08;;;;;;;2.70;2.13;;;;;;;21.97;44.42;98373.59;7035869;28;20249;-78
2022/09/03 05:47:29;;;;;;;2.60;1.90;;;;;;;22.18;44.30;98368.72;7019287;28;20232;-80
2022/09/03 05:50:59;;;;;;;2.33;2.13;;;;;;;22.48;42.91;98371.97;7008489;28;20233;-79
2022/09/03 05:54:21;;;;;;;2.60;2.40;;;;;;;22.50;42.69;98385.44;7020268;28;20284;-78
2022/09/03 05:57:44;;;;;;;2.83;2.30;;;;;;;22.44;43.23;98379.19;7033091;28;20688;-77
2022/09/03 06:01:11;;;;;;;2.40;2.20;;;;;;;21.94;44.15;98398.84;7034090;28;20565;-78
2022/09/03 06:04:33;;;;;;;2.43;2.20;;;;;;;22.52;42.88;98391.44;7035685;28;20237;-78
2022/09/03 06:07:54;;;;;;;2.40;2.20;;;;;;;22.24;43.51;98376.59;7034223;28;20353;-80
2022/09/03 06:11:17;;;;;;;3.83;2.03;;;;;;;22.54;43.73;98392.00;7036690;28;20225;-80
2022/09/03 06:14:38;;;;;;;3.27;2.27;;;;;;;22.84;43.27;98386.94;7038579;28;20246;-81
2022/09/03 06:18:01;;;;;;;2.73;2.30;;;;;;;22.92;42.81;98385.47;7037110;28;20204;-81
2022/09/03 06:21:23;;;;;;;2.43;2.27;;;;;;;22.53;43.64;98393.91;7038230;28;20206;-83
2022/09/03 06:24:44;;;;;;;2.63;2.40;;;;;;;22.16;44.63;98382.72;7041296;28;20569;-83
2022/09/03 06:28:07;;;;;;;2.97;2.10;;;;;;;22.81;43.57;98397.69;7040973;28;20610;-83
2022/09/03 06:31:29;;;;;;;4.83;2.20;;;;;;;23.07;43.26;98388.03;7024130;28;20277;-83
2022/09/03 06:34:52;;;;;;;2.60;2.30;;;;;;;23.31;43.55;98386.09;7018216;28;20310;-83
2022/09/03 06:38:14;;;;;;;2.70;2.50;;;;;;;23.16;43.84;98387.09;7014915;28;20209;-82
2022/09/03 06:41:36;;;;;;;2.80;2.60;;;;;;;23.46;42.49;98391.34;7027773;28;20639;-82
2022/09/03 06:44:57;;;;;;;2.53;2.33;;;;;;;23.43;42.55;98398.25;7015214;28;20226;-80
2022/09/03 06:48:19;;;;;;;2.03;1.93;;;;;;;23.31;43.83;98395.13;7019700;28;20190;-81
2022/09/03 06:51:43;;;;;;;4.70;2.60;;;;;;;23.21;43.88;98400.78;7022111;28;20234;-81
2022/09/03 06:55:05;;;;;;;3.33;2.17;;;;;;;22.85;44.71;98387.75;7032746;28;20253;-80
2022/09/03 06:58:29;;;;;;;2.53;2.33;;;;;;;23.14;43.82;98392.03;7034792;28;20202;-82
2022/09/03 07:01:51;;;;;;;3.90;2.30;;;;;;;23.27;43.78;98363.84;7043196;28;20204;-81
2022/09/03 07:05:12;;;;;;;2.30;2.10;;;;;;;23.47;43.79;98382.81;7014772;28;20728;-81
2022/09/03 07:08:35;;;;;;;2.87;2.40;;;;;;;23.66;43.22;98399.31;7005961;28;20228;-81
2022/09/03 07:11:57;;;;;;;4.00;2.53;;;;;;;22.98;43.57;98304.56;7011123;28;20739;-81
2022/09/03 07:15:19;;;;;;;2.73;2.53;;;;;;;23.73;43.58;98388.72;7029486;28;20584;-80
2022/09/03 07:18:42;;;;;;;2.63;2.40;;;;;;;23.80;42.85;98391.91;7005659;28;20199;-81
2022/09/03 07:22:04;;;;;;;2.70;2.50;;;;;;;23.98;41.81;98367.13;7014062;28;20207;-80
2022/09/03 07:25:27;;;;;;;3.57;2.50;;;;;;;24.17;41.58;98384.44;7055923;28;20214;-81
2022/09/03 07:28:49;;;;;;;2.40;2.20;;;;;;;24.27;41.52;98391.69;7033551;28;20215;-80
2022/09/03 07:32:10;;;;;;;2.60;2.40;;;;;;;24.41;41.35;98400.78;7036157;28;20686;-80
2022/09/03 07:35:36;;;;;;;3.13;2.37;;;;;;;24.11;42.04;98360.00;7032457;28;20721;-80
2022/09/03 07:38:58;;;;;;;2.90;2.30;;;;;;;24.69;40.85;98405.25;7035007;28;20209;-80
2022/09/03 07:42:22;;;;;;;2.57;2.43;;;;;;;24.82;41.38;98407.19;7032749;28;20200;-81
2022/09/03 07:45:49;;;;;;;2.17;2.03;;;;;;;24.78;40.80;98378.59;7034728;28;20227;-80
2022/09/03 07:49:11;;;;;;;5.50;2.80;;;;;;;25.29;40.63;98395.72;7034053;28;20275;-80
2022/09/03 07:52:33;;;;;;;2.90;2.60;;;;;;;25.18;40.91;98397.88;7034630;28;20239;-80
2022/09/03 07:55:55;;;;;;;2.97;2.77;;;;;;;25.55;40.09;98399.56;7038816;28;20245;-80
2022/09/03 07:59:20;;;;;;;4.20;2.20;;;;;;;25.55;39.71;98407.84;7034189;28;20207;-82
2022/09/03 08:02:41;;;;;;;3.70;2.47;;;;;;;25.23;40.98;98405.22;7009550;28;20217;-81
2022/09/03 08:06:04;;;;;;;2.17;2.00;;;;;;;25.84;40.09;98414.59;7029452;28;20729;-81
2022/09/03 08:09:25;;;;;;;2.90;2.67;;;;;;;25.87;39.55;98405.69;7022036;28;20195;-81
2022/09/03 08:12:47;;;;;;;3.47;2.30;;;;;;;26.20;39.13;98420.09;7021756;28;20224;-81
2022/09/03 08:16:11;;;;;;;2.77;2.40;;;;;;;25.93;39.60;98374.09;7005165;28;20380;-83
2022/09/03 08:19:33;;;;;;;3.43;2.30;;;;;;;26.60;38.42;98349.94;7003699;28;20262;-81
2022/09/03 08:23:00;;;;;;;2.67;2.33;;;;;;;28.11;36.51;98410.63;7006771;28;20563;-81
2022/09/03 08:26:22;;;;;;;2.13;1.93;;;;;;;28.60;35.61;98410.06;7007353;28;20234;-81
2022/09/03 08:29:45;;;;;;;3.00;2.07;;;;;;;28.21;36.51;98418.59;7035679;28;20206;-81
2022/09/03 08:33:08;;;;;;;3.77;2.60;;;;;;;28.25;36.83;98412.06;7042034;28;20223;-81
2022/09/03 08:36:31;;;;;;;2.77;2.53;;;;;;;27.82;37.13;98399.38;7031969;28;20229;-81
2022/09/03 08:39:52;;;;;;;3.57;2.30;;;;;;;28.19;36.13;98373.78;7031616;28;20190;-82
2022/09/03 08:43:17;;;;;;;2.90;2.57;;;;;;;27.87;37.44;98404.78;7032336;28;20217;-81
2022/09/03 08:46:46;;;;;;;3.90;2.50;;;;;;;27.37;37.86;98421.00;7027964;28;20229;-81
2022/09/03 08:50:12;;;;;;;2.77;2.40;;;;;;;27.57;37.70;98425.09;7008029;28;20189;-82
2022/09/03 08:53:40;;;;;;;2.23;2.13;;;;;;;28.52;36.08;98410.91;7033234;28;20218;-82
2022/09/03 08:57:03;;;;;;;2.90;2.60;;;;;;;28.28;36.88;98380.09;7031101;28;20330;-81
2022/09/03 09:00:25;;;;;;;2.73;2.33;;;;;;;29.58;34.94;98411.41;7028076;28;20205;-81
2022/09/03 09:03:55;;;;;;;3.33;2.53;;;;;;;30.00;33.44;98418.59;7003579;28;20288;-83
2022/09/03 09:07:21;;;;;;;4.03;2.60;;;;;;;30.61;32.97;98417.72;7003230;28;20225;-82
2022/09/03 09:10:46;;;;;;;2.67;2.47;;;;;;;30.74;33.04;98397.94;7018407;28;20208;-80
2022/09/03 09:14:12;;;;;;;4.33;2.33;;;;;;;31.35;31.50;98424.69;7012731;28;20235;-80
2022/09/03 09:17:45;;;;;;;3.13;2.30;;;;;;;30.66;33.05;98423.09;7031665;28;20285;-81
2022/09/03 09:21:10;;;;;;;2.57;2.37;;;;;;;29.98;34.33;98416.19;7033411;28;20192;-80
2022/09/03 09:24:38;;;;;;;3.07;2.70;;;;;;;29.57;34.66;98430.06;7030811;28;20774;-78
2022/09/03 09:28:02;;;;;;;3.40;2.50;;;;;;;29.01;35.34;98413.84;7047606;28;20219;-80
2022/09/03 09:31:25;;;;;;;3.40;2.20;;;;;;;29.15;35.04;98428.34;7022655;28;20227;-79
2022/09/03 09:34:46;;;;;;;5.70;3.90;;;;;;;29.15;36.03;98433.88;7001046;28;20691;-79
2022/09/03 09:38:09;;;;;;;2.60;2.40;;;;;;;29.40;34.56;98430.16;7002111;28;20219;-77
2022/09/03 09:41:32;;;;;;;7.83;4.97;;;;;;;29.52;35.25;98423.84;7004288;28;20227;-80
2022/09/03 09:44:54;;;;;;;9.17;5.83;;;;;;;29.25;35.91;98418.81;7006779;28;20228;-81
2022/09/03 09:48:22;;;;;;;3.63;2.77;;;;;;;28.66;36.49;98419.84;7031959;28;20209;-81
2022/09/03 09:51:43;;;;;;;3.10;2.80;;;;;;;28.63;36.59;98412.19;7025273;28;20249;-78
2022/09/03 09:55:11;;;;;;;4.30;3.13;;;;;;;28.69;36.93;98411.69;7002255;28;20241;-80
2022/09/03 09:58:35;;;;;;;3.27;2.80;;;;;;;29.70;34.44;98386.47;7013038;28;20198;-80
2022/09/03 10:02:11;;;;;;;6.23;3.53;;;;;;;29.75;36.01;98420.44;7031448;28;20203;-76
2022/09/03 10:05:35;;;;;;;3.60;3.03;;;;;;;30.17;33.86;98413.75;7023992;28;20647;-78
2022/09/03 10:09:06;;;;;;;3.07;2.77;;;;;;;29.79;33.96;98398.34;7002472;28;20712;-79
2022/09/03 10:12:33;;;;;;;2.97;2.77;;;;;;;30.62;33.26;98411.81;7006251;28;20216;-81
2022/09/03 10:16:00;;;;;;;3.40;2.77;;;;;;;30.31;33.76;98413.44;7025324;28;20238;-81
2022/09/03 10:19:26;;;;;;;2.80;2.60;;;;;;;29.43;35.28;98412.00;7021301;28;20199;-80
2022/09/03 10:22:50;;;;;;;4.50;2.57;;;;;;;29.79;34.69;98418.59;7033522;28;20187;-80
2022/09/03 10:26:13;;;;;;;2.93;2.73;;;;;;;29.71;34.87;98421.47;7034741;28;20234;-79
2022/09/03 10:29:36;;;;;;;2.93;2.63;;;;;;;29.80;35.13;98411.09;7028850;28;20203;-81
2022/09/03 10:33:07;;;;;;;3.87;2.73;;;;;;;30.30;33.87;98417.38;7006848;28;20259;-80
2022/09/03 10:36:33;;;;;;;5.17;3.00;;;;;;;29.93;34.33;98416.38;7006836;28;20230;-79
2022/09/03 10:40:05;;;;;;;3.10;2.80;;;;;;;29.89;34.07;98420.97;7005999;28;20274;-81
2022/09/03 10:43:45;;;;;;;3.37;2.77;;;;;;;29.44;34.23;98406.09;7006324;28;20226;-79
2022/09/03 10:47:22;;;;;;;3.10;2.80;;;;;;;29.25;34.97;98410.47;7032720;28;20259;-80
2022/09/03 10:50:49;;;;;;;3.60;3.20;;;;;;;29.45;35.52;98410.50;7021923;28;20658;-78
2022/09/03 10:54:31;;;;;;;3.60;2.70;;;;;;;29.69;35.83;98418.19;7006017;28;20217;-78
2022/09/03 10:57:59;;;;;;;3.37;3.07;;;;;;;29.38;35.50;98418.53;7005034;28;20213;-80
2022/09/03 11:01:26;;;;;;;3.77;2.97;;;;;;;30.04;33.61;98414.00;7017014;28;20215;-79
2022/09/03 11:04:53;;;;;;;3.47;2.80;;;;;;;29.42;35.42;98410.38;7032575;28;20690;-79
2022/09/03 11:08:20;;;;;;;3.40;2.97;;;;;;;29.09;35.84;98404.69;7031828;28;20238;-79
2022/09/03 11:11:45;;;;;;;3.40;3.10;;;;;;;29.23;35.30;98384.97;7032157;28;20209;-80
2022/09/03 11:15:10;;;;;;;5.27;2.80;;;;;;;29.66;35.14;98391.91;7032682;28;20235;-80
2022/09/03 11:18:34;;;;;;;4.70;2.70;;;;;;;29.60;35.28;98390.47;7031610;28;20209;-79
2022/09/03 11:21:56;;;;;;;3.67;2.43;;;;;;;30.04;34.10;98391.75;7022658;28;20199;-83
2022/09/03 11:25:24;;;;;;;2.93;2.70;;;;;;;29.84;34.24;98390.59;7004339;28;20271;-80
2022/09/03 11:28:52;;;;;;;2.97;2.67;;;;;;;29.15;35.11;98363.63;7002438;28;20201;-80
2022/09/03 11:32:18;;;;;;;3.10;2.80;;;;;;;29.53;35.75;98381.03;7003664;28;20303;-80
2022/09/03 11:35:41;;;;;;;2.97;2.67;;;;;;;29.98;34.04;98374.47;7004001;28;20304;-80
2022/09/03 11:39:15;;;;;;;4.93;2.60;;;;;;;29.92;34.82;98367.50;7015504;28;20239;-80
2022/09/03 11:42:40;;;;;;;3.10;2.80;;;;;;;29.63;34.78;98375.91;7031679;28;20361;-79
2022/09/03 11:46:03;;;;;;;4.13;3.13;;;;;;;29.05;37.03;98369.56;7005289;28;20230;-79
2022/09/03 11:49:29;;;;;;;3.47;3.17;;;;;;;29.14;36.07;98360.03;7016004;28;20206;-79
2022/09/03 11:52:53;;;;;;;3.73;2.83;;;;;;;29.73;35.04;98364.38;7014227;28;20238;-80
2022/09/03 11:56:18;;;;;;;2.87;2.67;;;;;;;30.03;34.46;98368.69;7014928;28;20229;-79
2022/09/03 11:59:43;;;;;;;3.37;2.73;;;;;;;29.60;34.99;98384.91;7013667;28;20191;-79
2022/09/03 12:03:04;;;;;;;5.57;2.80;;;;;;;29.37;36.26;98402.22;7031636;28;20209;-79
2022/09/03 12:06:42;;;;;;;3.10;2.50;;;;;;;28.64;37.17;98366.63;7034389;28;20280;-79
2022/09/03 12:10:19;;;;;;;3.40;2.97;;;;;;;29.12;36.47;98411.50;7034148;28;20294;-78
2022/09/03 12:13:49;;;;;;;3.20;2.43;;;;;;;29.27;36.26;98413.72;7028230;28;20213;-79
2022/09/03 12:17:21;;;;;;;3.60;2.60;;;;;;;29.08;36.89;98405.81;7002251;28;20658;-79
2022/09/03 12:20:44;;;;;;;5.13;3.00;;;;;;;29.19;36.79;98411.81;7029717;28;20207;-78
2022/09/03 12:24:06;;;;;;;3.50;2.70;;;;;;;29.04;38.22;98410.41;7030384;28;20205;-79
2022/09/03 12:27:33;;;;;;;3.40;3.10;;;;;;;28.42;40.36;98414.06;7029295;28;20222;-79
2022/09/03 12:30:54;;;;;;;3.03;2.77;;;;;;;28.30;41.63;98405.56;7030324;28;20230;-79
2022/09/03 12:34:19;;;;;;;3.37;3.00;;;;;;;28.06;43.00;98394.16;7032481;28;20225;-80
2022/09/03 12:37:41;;;;;;;4.90;3.40;;;;;;;27.54;45.53;98443.19;7031180;28;20292;-79
2022/09/03 12:41:03;;;;;;;3.73;3.40;;;;;;;26.82;46.33;98455.78;7004356;28;20339;-79
2022/09/03 12:44:28;;;;;;;3.17;2.90;;;;;;;25.37;49.34;98470.34;7005539;28;20204;-79
2022/09/03 12:47:50;;;;;;;5.90;2.37;;;;;;;24.39;52.04;98470.00;7004551;28;20213;-79
2022/09/03 12:51:13;;;;;;;2.30;2.10;;;;;;;24.20;54.17;98471.97;7005670;28;20215;-79
2022/09/03 12:54:38;;;;;;;5.80;1.97;;;;;;;23.19;54.65;98471.78;7003703;28;20325;-79
2022/09/03 12:58:05;;;;;;;1.93;1.73;;;;;;;22.85;56.56;98475.75;7002603;28;20208;-77
2022/09/03 13:01:30;;;;;;;1.70;1.60;;;;;;;23.05;55.87;98476.31;7003057;28;20645;-77
2022/09/03 13:04:51;;;;;;;2.17;1.60;;;;;;;22.99;55.56;98476.66;7002781;28;20219;-78
2022/09/03 13:08:18;;;;;;;5.47;1.73;;;;;;;23.33;54.50;98482.88;7002112;28;20246;-81
2022/09/03 13:11:43;;;;;;;1.93;1.70;;;;;;;22.91;55.85;98491.91;7001739;28;20235;-77
2022/09/03 13:15:07;;;;;;;3.40;2.00;;;;;;;22.85;56.39;98503.22;7001688;28;20239;-78
2022/09/03 13:18:36;;;;;;;1.60;1.50;;;;;;;21.96;57.73;98491.91;7001451;28;20201;-78
2022/09/03 13:22:04;;;;;;;3.87;1.90;;;;;;;21.34;61.29;98513.63;7012438;28;20716;-77
2022/09/03 13:25:30;;;;;;;1.93;1.73;;;;;;;21.63;60.52;98515.44;7005238;28;20312;-77
2022/09/03 13:29:04;;;;;;;2.00;1.87;;;;;;;21.98;58.67;98517.97;7002564;28;20571;-77
2022/09/03 13:32:35;;;;;;;2.17;1.80;;;;;;;22.60;56.57;98512.53;7023717;28;20302;-78
2022/09/03 13:36:10;;;;;;;2.53;1.70;;;;;;;23.06;57.00;98508.22;7039456;28;20229;-80
2022/09/03 13:39:38;;;;;;;1.90;1.80;;;;;;;23.32;57.23;98498.59;7029598;28;20182;-78
2022/09/03 13:43:05;;;;;;;2.63;2.10;;;;;;;22.99;57.25;98509.66;7030311;28;20278;-79
2022/09/03 13:46:31;;;;;;;2.23;1.80;;;;;;;23.01;57.48;98505.50;7030475;28;20600;-79
2022/09/03 13:53:45;;;;;;;3.10;2.00;;;;;;;23.46;56.95;98499.50;7035293;28;20215;-79
2022/09/03 13:57:09;;;;;;;1.63;1.53;;;;;;;23.84;57.01;98492.91;7034715;28;20311;-78
2022/09/03 14:00:35;;;;;;;2.20;2.00;;;;;;;24.36;56.21;98472.56;7035090;28;20278;-80
2022/09/03 14:03:58;;;;;;;2.67;1.77;;;;;;;24.98;56.06;98478.31;7035182;28;20253;-79
2022/09/03 14:07:25;;;;;;;1.70;1.60;;;;;;;24.51;55.06;98467.59;7035170;28;20576;-80
2022/09/03 14:11:01;;;;;;;1.57;1.47;;;;;;;24.50;55.05;98465.97;7033917;28;20195;-79
2022/09/03 14:14:35;;;;;;;3.77;1.97;;;;;;;24.81;56.02;98435.88;7034428;28;20879;-79
2022/09/03 14:18:03;;;;;;;2.10;1.63;;;;;;;24.71;56.33;98449.91;7034349;28;20200;-80
2022/09/03 14:21:28;;;;;;;2.87;1.67;;;;;;;24.63;56.46;98450.59;7034847;28;20242;-80
2022/09/03 14:24:53;;;;;;;2.50;1.70;;;;;;;24.38;56.05;98449.09;7035949;28;20223;-80
2022/09/03 14:28:20;;;;;;;1.50;1.40;;;;;;;24.33;56.33;98460.19;7033984;28;20257;-79
2022/09/03 14:32:00;;;;;;;1.93;1.60;;;;;;;24.11;56.08;98465.53;7035072;28;20291;-79
2022/09/03 14:35:44;;;;;;;2.87;1.60;;;;;;;24.85;53.95;98465.34;7036091;28;20250;-80
2022/09/03 14:39:23;;;;;;;2.27;1.50;;;;;;;24.98;53.20;98452.66;7007438;28;20211;-80
2022/09/03 14:42:54;;;;;;;2.03;1.83;;;;;;;25.38;52.39;98458.19;7008198;28;20216;-80
2022/09/03 14:46:25;;;;;;;3.33;1.70;;;;;;;25.78;52.11;98467.53;7008602;28;20225;-80
2022/09/03 14:50:05;;;;;;;1.70;1.60;;;;;;;26.18;50.89;98458.31;7007092;28;20214;-80
2022/09/03 14:53:53;;;;;;;1.60;1.50;;;;;;;26.04;50.54;98433.50;7008088;28;20212;-79
2022/09/03 14:57:42;;;;;;;2.30;1.43;;;;;;;25.30;51.88;98456.16;7006888;28;20229;-80
2022/09/03 15:01:11;;;;;;;3.33;1.77;;;;;;;25.45;51.41;98468.81;7006669;28;20278;-80
2022/09/03 15:04:46;;;;;;;2.87;1.80;;;;;;;25.53;51.69;98468.91;7024424;28;20285;-79
2022/09/03 15:08:12;;;;;;;2.17;1.70;;;;;;;25.57;52.13;98466.34;7024497;28;20194;-80
2022/09/03 15:11:47;;;;;;;1.60;1.50;;;;;;;25.00;52.70;98450.41;7034819;28;20199;-80
2022/09/03 15:15:13;;;;;;;1.63;1.30;;;;;;;25.21;52.63;98463.50;7016319;28;20279;-79
2022/09/03 15:18:44;;;;;;;1.70;1.60;;;;;;;24.85;52.46;98470.84;7019821;28;20216;-80
2022/09/03 15:22:13;;;;;;;1.50;1.40;;;;;;;24.38;53.61;98459.28;7022470;28;20220;-79
2022/09/03 15:25:48;;;;;;;1.73;1.47;;;;;;;25.11;51.31;98455.41;7023342;28;20239;-80
2022/09/03 15:29:23;;;;;;;1.40;1.30;;;;;;;25.27;51.25;98454.03;7033678;28;20670;-80
2022/09/03 15:32:58;;;;;;;3.20;1.70;;;;;;;25.73;49.46;98467.63;7041103;28;20227;-81
2022/09/03 15:36:22;;;;;;;2.00;1.80;;;;;;;25.57;49.37;98466.34;7047345;28;20224;-80
2022/09/03 15:39:46;;;;;;;1.83;1.73;;;;;;;25.54;50.14;98459.47;7039623;28;20282;-79
2022/09/03 15:43:09;;;;;;;1.70;1.60;;;;;;;24.88;53.42;98464.72;7023497;28;20207;-80
2022/09/03 15:46:55;;;;;;;1.90;1.43;;;;;;;24.87;54.85;98470.53;7034854;28;20692;-79
2022/09/03 15:50:26;;;;;;;3.23;1.83;;;;;;;25.34;53.68;98468.22;7035169;28;20187;-79
2022/09/03 15:53:53;;;;;;;1.73;1.43;;;;;;;24.89;52.75;98468.31;7037630;28;20220;-79
2022/09/03 15:57:20;;;;;;;1.87;1.60;;;;;;;24.82;53.53;98471.44;7040810;28;20231;-82
2022/09/03 16:00:58;;;;;;;3.83;1.70;;;;;;;24.50;54.67;98452.19;7039771;28;20201;-80
2022/09/03 16:04:33;;;;;;;1.97;1.33;;;;;;;25.22;51.17;98467.88;7011600;28;20217;-80
2022/09/03 16:08:05;;;;;;;2.60;1.93;;;;;;;24.76;52.30;98452.53;7019875;28;20267;-80
2022/09/03 16:11:35;;;;;;;1.70;1.50;;;;;;;25.53;50.93;98459.78;7034757;28;20195;-81
2022/09/03 16:15:00;;;;;;;3.33;1.60;;;;;;;25.36;50.29;98435.59;7010524;28;20259;-80